createdAt,value
2023-04-05T00:01:58.780Z,9.08
2023-04-05T00:04:50.696Z,9.09
2023-04-05T00:07:36.146Z,9.11
2023-04-05T00:10:21.495Z,9.14
2023-04-05T00:13:06.729Z,9.17
2023-04-05T00:15:52.212Z,9.18
2023-04-05T00:18:38.672Z,9.23
2023-04-05T00:21:25.001Z,9.25
2023-04-05T00:24:15.497Z,9.28
2023-04-05T00:27:01.440Z,9.32
2023-04-05T00:29:46.771Z,9.36
2023-04-05T00:32:32.679Z,9.35
2023-04-05T00:35:18.217Z,9.38
2023-04-05T00:38:03.434Z,9.37
2023-04-05T00:40:48.996Z,9.38
2023-04-05T00:43:34.912Z,9.39
2023-04-05T00:46:20.711Z,9.41
2023-04-05T00:49:06.028Z,9.41
2023-04-05T00:51:52.334Z,9.39
2023-04-05T00:54:39.248Z,9.42
2023-04-05T00:57:26.461Z,9.44
2023-04-05T01:00:12.147Z,9.43
2023-04-05T01:03:03.578Z,9.47
2023-04-05T01:06:02.109Z,9.47
2023-04-05T01:09:13.468Z,9.50
2023-04-05T01:12:03.005Z,9.51
2023-04-05T01:14:51.569Z,9.54
2023-04-05T01:17:39.278Z,9.55
2023-04-05T01:20:26.100Z,9.57
2023-04-05T01:23:40.294Z,9.58
2023-04-05T01:26:47.603Z,9.58
2023-04-05T01:29:46.478Z,9.62
2023-04-05T01:32:55.429Z,9.62
2023-04-05T01:35:52.181Z,9.66
2023-04-05T01:38:40.680Z,9.68
2023-04-05T01:41:27.238Z,9.68
2023-04-05T01:44:12.948Z,9.69
2023-04-05T01:46:58.393Z,9.69
2023-04-05T01:49:43.775Z,9.71
2023-04-05T01:52:29.123Z,9.70
2023-04-05T01:55:14.506Z,9.70
2023-04-05T01:58:00.007Z,9.73
2023-04-05T02:00:45.876Z,9.72
2023-04-05T02:03:31.395Z,9.72
2023-04-05T02:06:17.752Z,9.71
2023-04-05T02:09:03.254Z,9.72
2023-04-05T02:11:48.682Z,9.73
2023-04-05T02:14:35.433Z,9.72
2023-04-05T02:17:21.939Z,9.72
2023-04-05T02:20:09.123Z,9.73
2023-04-05T02:22:55.441Z,9.73
2023-04-05T02:25:41.011Z,9.77
2023-04-05T02:28:26.579Z,9.77
2023-04-05T02:31:13.639Z,9.76
2023-04-05T02:34:01.153Z,9.77
2023-04-05T02:36:47.369Z,9.78
2023-04-05T02:39:33.005Z,9.78
2023-04-05T02:42:18.473Z,9.78
2023-04-05T02:45:03.990Z,9.76
2023-04-05T02:47:50.195Z,9.77
2023-04-05T02:50:36.112Z,9.77
2023-04-05T02:53:22.504Z,9.76
2023-04-05T02:56:17.780Z,9.76
2023-04-05T02:59:06.245Z,9.78
2023-04-05T03:01:51.974Z,9.79
2023-04-05T03:04:44.984Z,9.83
2023-04-05T03:07:33.404Z,9.83
2023-04-05T03:10:28.978Z,9.85
2023-04-05T03:13:21.228Z,9.84
2023-04-05T03:16:07.705Z,9.83
2023-04-05T03:18:54.824Z,9.80
2023-04-05T03:21:41.189Z,9.79
2023-04-05T03:24:39.127Z,9.81
2023-04-05T03:27:29.191Z,9.78
2023-04-05T03:30:36.061Z,9.77
2023-04-05T03:33:33.406Z,9.75
2023-04-05T03:36:19.911Z,9.76
2023-04-05T03:39:12.676Z,9.77
2023-04-05T03:41:58.535Z,9.77
2023-04-05T03:44:43.779Z,9.77
2023-04-05T03:47:29.286Z,9.78
2023-04-05T03:50:18.061Z,9.79
2023-04-05T03:53:04.285Z,9.81
2023-04-05T03:55:50.619Z,9.82
2023-04-05T03:58:40.495Z,9.83
2023-04-05T04:01:27.145Z,9.80
2023-04-05T04:04:13.748Z,9.82
2023-04-05T04:07:03.478Z,9.81
2023-04-05T04:09:49.369Z,9.83
2023-04-05T04:12:35.444Z,9.83
2023-04-05T04:15:21.311Z,9.84
2023-04-05T04:18:20.417Z,9.86
2023-04-05T04:21:24.985Z,9.86
2023-04-05T04:24:21.870Z,9.84
2023-04-05T04:27:31.872Z,9.83
2023-04-05T04:30:30.337Z,9.83
2023-04-05T04:33:34.793Z,9.85
2023-04-05T04:36:37.052Z,9.87
2023-04-05T04:39:39.787Z,9.85
2023-04-05T04:42:38.993Z,9.87
2023-04-05T04:45:38.024Z,9.86
2023-04-05T04:48:59.217Z,9.85
2023-04-05T04:51:50.485Z,9.86
2023-04-05T04:54:42.457Z,9.85
2023-04-05T04:57:28.013Z,9.85
2023-04-05T05:00:15.989Z,9.87
2023-04-05T05:03:02.179Z,9.85
2023-04-05T05:05:50.437Z,9.85
2023-04-05T05:08:40.377Z,9.84
2023-04-05T05:11:25.843Z,9.83
2023-04-05T05:14:11.210Z,9.82
2023-04-05T05:16:59.281Z,9.82
2023-04-05T05:19:47.493Z,9.80
2023-04-05T05:22:32.816Z,9.80
2023-04-05T05:25:18.407Z,9.81
2023-04-05T05:28:04.195Z,9.80
2023-04-05T05:30:49.914Z,9.79
2023-04-05T05:33:35.683Z,9.80
2023-04-05T05:36:21.176Z,9.80
2023-04-05T05:39:07.953Z,9.83
2023-04-05T05:41:53.448Z,9.86
2023-04-05T05:44:38.782Z,9.89
2023-04-05T05:47:24.503Z,9.91
2023-04-05T05:50:10.388Z,9.94
2023-04-05T05:52:55.908Z,9.95
2023-04-05T05:55:41.810Z,9.95
2023-04-05T05:58:27.136Z,9.94
2023-04-05T06:01:12.386Z,9.93
2023-04-05T06:03:57.940Z,9.95
2023-04-05T06:06:44.064Z,9.99
2023-04-05T06:09:29.755Z,10.01
2023-04-05T06:12:15.418Z,10.03
2023-04-05T06:15:02.258Z,10.08
2023-04-05T06:17:47.869Z,10.12
2023-04-05T06:20:33.077Z,10.15
2023-04-05T06:23:18.425Z,10.17
2023-04-05T06:26:03.823Z,10.19
2023-04-05T06:28:49.809Z,10.24
2023-04-05T06:31:36.387Z,10.27
2023-04-05T06:34:21.902Z,10.31
2023-04-05T06:37:07.414Z,10.33
2023-04-05T06:39:52.994Z,10.36
2023-04-05T06:42:38.199Z,10.40
2023-04-05T06:45:26.410Z,10.45
2023-04-05T06:48:12.136Z,10.51
2023-04-05T06:51:02.304Z,10.56
2023-04-05T06:53:47.552Z,10.60
2023-04-05T06:56:32.906Z,10.67
2023-04-05T06:59:18.221Z,10.74
2023-04-05T07:02:03.583Z,10.81
2023-04-05T07:04:49.123Z,10.87
2023-04-05T07:07:39.469Z,10.93
2023-04-05T07:10:24.853Z,11.00
2023-04-05T07:13:10.395Z,11.08
2023-04-05T07:16:03.527Z,11.18
2023-04-05T07:18:48.930Z,11.23
2023-04-05T07:21:36.614Z,11.28
2023-04-05T07:24:21.939Z,11.31
2023-04-05T07:27:07.477Z,11.35
2023-04-05T07:29:53.053Z,11.39
2023-04-05T07:32:38.373Z,11.42
2023-04-05T07:35:23.627Z,11.45
2023-04-05T07:38:11.360Z,11.51
2023-04-05T07:40:56.626Z,11.55
2023-04-05T07:43:42.152Z,11.59
2023-04-05T07:46:27.842Z,11.62
2023-04-05T07:49:13.563Z,11.65
2023-04-05T07:51:59.682Z,11.70
2023-04-05T07:54:45.952Z,11.75
2023-04-05T07:57:31.393Z,11.85
2023-04-05T08:00:17.514Z,11.93
2023-04-05T08:03:04.605Z,12.05
2023-04-05T08:05:50.317Z,12.16
2023-04-05T08:08:35.878Z,12.25
2023-04-05T08:11:21.671Z,12.34
2023-04-05T08:14:07.085Z,12.44
2023-04-05T08:16:52.679Z,12.53
2023-04-05T08:19:38.085Z,12.65
2023-04-05T08:22:23.463Z,12.80
2023-04-05T08:25:09.396Z,12.85
2023-04-05T08:27:54.590Z,12.95
2023-04-05T08:30:41.441Z,13.07
2023-04-05T08:33:28.557Z,13.19
2023-04-05T08:36:13.924Z,13.33
2023-04-05T08:38:59.379Z,13.37
2023-04-05T08:41:54.533Z,13.33
2023-04-05T08:44:41.452Z,13.26
2023-04-05T08:47:27.749Z,13.28
2023-04-05T08:50:13.785Z,13.26
2023-04-05T08:52:59.498Z,13.25
2023-04-05T08:56:06.208Z,13.19
2023-04-05T08:59:23.164Z,13.13
2023-04-05T09:02:18.989Z,13.04
2023-04-05T09:05:09.609Z,13.09
2023-04-05T09:07:58.328Z,13.16
2023-04-05T09:10:44.414Z,13.27
2023-04-05T09:13:29.943Z,13.43
2023-04-05T09:16:17.221Z,13.50
2023-04-05T09:19:02.797Z,13.63
2023-04-05T09:22:01.682Z,13.84
2023-04-05T09:24:47.621Z,14.00
2023-04-05T09:27:36.567Z,14.12
2023-04-05T09:30:23.224Z,14.12
2023-04-05T09:33:10.588Z,14.06
2023-04-05T09:35:56.391Z,14.08
2023-04-05T09:38:43.957Z,14.06
2023-04-05T09:41:29.344Z,14.07
2023-04-05T09:44:14.679Z,14.10
2023-04-05T09:47:18.793Z,14.09
2023-04-05T09:50:18.855Z,14.09
2023-04-05T09:53:16.608Z,14.07
2023-04-05T09:56:11.270Z,14.07
2023-04-05T09:59:07.493Z,14.01
2023-04-05T10:01:52.958Z,13.92
2023-04-05T10:04:45.493Z,13.95
2023-04-05T10:07:30.939Z,14.01
2023-04-05T10:10:16.431Z,14.07
2023-04-05T10:13:06.007Z,14.24
2023-04-05T10:15:56.677Z,14.46
2023-04-05T10:18:52.827Z,14.61
2023-04-05T10:21:42.365Z,14.72
2023-04-05T10:24:27.783Z,14.76
2023-04-05T10:27:23.061Z,14.84
2023-04-05T10:30:09.913Z,14.94
2023-04-05T10:33:16.771Z,15.01
2023-04-05T10:36:29.842Z,15.20
2023-04-05T10:39:35.523Z,15.30
2023-04-05T10:42:27.697Z,15.40
2023-04-05T10:45:18.049Z,15.54
2023-04-05T10:48:25.276Z,15.52
2023-04-05T10:51:12.467Z,15.50
2023-04-05T10:53:58.825Z,15.46
2023-04-05T10:56:44.856Z,15.50
2023-04-05T10:59:31.401Z,15.50
2023-04-05T11:02:18.483Z,15.57
2023-04-05T11:05:05.185Z,15.74
2023-04-05T11:07:51.504Z,15.95
2023-04-05T11:10:39.664Z,16.13
2023-04-05T11:13:49.048Z,16.20
2023-04-05T11:16:41.201Z,16.36
2023-04-05T11:20:05.178Z,16.39
2023-04-05T11:22:54.729Z,16.41
2023-04-05T11:25:41.657Z,16.42
2023-04-05T11:28:39.680Z,16.43
2023-04-05T11:31:27.073Z,16.52
2023-04-05T11:34:12.386Z,16.60
2023-04-05T11:36:57.813Z,16.47
2023-04-05T11:39:43.296Z,16.25
2023-04-05T11:42:28.644Z,16.04
2023-04-05T11:45:14.080Z,15.75
2023-04-05T11:48:10.462Z,15.60
2023-04-05T11:50:57.339Z,15.63
2023-04-05T11:53:48.952Z,15.59
2023-04-05T11:56:34.402Z,15.62
2023-04-05T11:59:19.849Z,15.56
2023-04-05T12:02:08.200Z,15.51
2023-04-05T12:04:56.176Z,15.39
2023-04-05T12:07:41.483Z,15.18
2023-04-05T12:10:30.865Z,15.17
2023-04-05T12:13:27.594Z,15.06
2023-04-05T12:16:13.383Z,14.93
2023-04-05T12:19:00.903Z,14.92
2023-04-05T12:21:46.433Z,14.86
2023-04-05T12:24:32.337Z,14.87
2023-04-05T12:27:18.219Z,14.99
2023-04-05T12:30:16.306Z,15.16
2023-04-05T12:33:08.951Z,15.11
2023-04-05T12:35:55.000Z,14.94
2023-04-05T12:38:40.426Z,14.86
2023-04-05T12:41:33.228Z,14.83
2023-04-05T12:44:31.742Z,14.81
2023-04-05T12:47:17.688Z,14.86
2023-04-05T12:50:14.494Z,15.01
2023-04-05T12:53:15.748Z,15.14
2023-04-05T12:56:01.724Z,15.34
2023-04-05T12:58:51.111Z,15.43
2023-04-05T13:01:36.456Z,15.43
2023-04-05T13:04:23.248Z,15.53
2023-04-05T13:07:08.699Z,15.52
2023-04-05T13:09:53.999Z,15.36
2023-04-05T13:12:39.614Z,15.24
2023-04-05T13:15:25.296Z,14.93
2023-04-05T13:18:10.889Z,14.81
2023-04-05T13:20:56.524Z,14.83
2023-04-05T13:23:42.060Z,14.91
2023-04-05T13:26:27.698Z,15.00
2023-04-05T13:29:13.269Z,15.06
2023-04-05T13:31:58.550Z,15.14
2023-04-05T13:34:44.437Z,15.29
2023-04-05T13:37:29.934Z,15.42
2023-04-05T13:40:19.121Z,15.55
2023-04-05T13:43:05.112Z,15.68
2023-04-05T13:45:51.026Z,15.80
2023-04-05T13:48:37.071Z,15.68
2023-04-05T13:51:23.042Z,15.60
2023-04-05T13:54:11.413Z,15.55
2023-04-05T13:56:57.299Z,15.38
2023-04-05T13:59:42.729Z,15.22
2023-04-05T14:02:28.765Z,15.22
2023-04-05T14:05:15.570Z,15.21
2023-04-05T14:08:01.210Z,15.16
2023-04-05T14:10:46.594Z,15.18
2023-04-05T14:13:31.949Z,15.08
2023-04-05T14:16:17.433Z,15.02
2023-04-05T14:19:02.607Z,15.04
2023-04-05T14:21:48.628Z,15.13
2023-04-05T14:24:34.346Z,15.10
2023-04-05T14:27:26.547Z,15.13
2023-04-05T14:30:12.492Z,15.12
2023-04-05T14:32:58.277Z,15.07
2023-04-05T14:35:44.027Z,14.99
2023-04-05T14:38:29.393Z,14.90
2023-04-05T14:41:14.858Z,14.81
2023-04-05T14:44:00.861Z,14.67
2023-04-05T14:46:46.430Z,14.59
2023-04-05T14:49:31.799Z,14.55
2023-04-05T14:52:17.216Z,14.50
2023-04-05T14:55:02.530Z,14.53
2023-04-05T14:57:48.028Z,14.52
2023-04-05T15:00:34.751Z,14.44
2023-04-05T15:03:20.562Z,14.36
2023-04-05T15:06:06.599Z,14.36
2023-04-05T15:08:52.080Z,14.21
2023-04-05T15:11:39.362Z,14.17
2023-04-05T15:14:31.753Z,14.09
2023-04-05T15:17:18.038Z,13.97
2023-04-05T15:20:03.490Z,13.28
2023-04-05T15:22:49.155Z,12.82
2023-04-05T15:25:34.470Z,12.47
2023-04-05T15:28:19.958Z,12.16
2023-04-05T15:31:05.555Z,12.01
2023-04-05T15:33:51.346Z,11.93
2023-04-05T15:36:37.238Z,11.89
2023-04-05T15:39:23.970Z,11.88
2023-04-05T15:42:09.582Z,11.86
2023-04-05T15:44:55.264Z,11.88
2023-04-05T15:47:41.048Z,11.89
2023-04-05T15:50:27.161Z,11.88
2023-04-05T15:53:12.393Z,11.93
2023-04-05T15:55:58.387Z,11.94
2023-04-05T15:58:44.277Z,11.99
2023-04-05T16:01:29.950Z,11.99
2023-04-05T16:04:15.941Z,11.99
2023-04-05T16:07:01.741Z,12.02
2023-04-05T16:09:47.140Z,12.02
2023-04-05T16:12:32.725Z,12.02
2023-04-05T16:15:18.279Z,12.08
2023-04-05T16:18:03.748Z,12.13
2023-04-05T16:20:49.307Z,12.22
2023-04-05T16:23:34.951Z,12.29
2023-04-05T16:26:20.537Z,12.35
2023-04-05T16:29:05.799Z,12.42
2023-04-05T16:31:51.243Z,12.47
2023-04-05T16:34:36.574Z,12.57
2023-04-05T16:37:21.995Z,12.65
2023-04-05T16:40:10.241Z,12.79
2023-04-05T16:42:55.877Z,12.91
2023-04-05T16:45:42.160Z,13.09
2023-04-05T16:48:27.795Z,13.28
2023-04-05T16:51:13.226Z,13.41
2023-04-05T16:53:58.950Z,13.48
2023-04-05T16:56:44.563Z,13.42
2023-04-05T16:59:30.007Z,13.34
2023-04-05T17:02:18.080Z,13.20
2023-04-05T17:05:03.661Z,13.22
2023-04-05T17:07:49.363Z,13.17
2023-04-05T17:10:35.422Z,13.29
2023-04-05T17:13:21.177Z,13.26
2023-04-05T17:16:07.391Z,13.27
2023-04-05T17:18:52.927Z,13.33
2023-04-05T17:21:38.371Z,13.52
2023-04-05T17:24:25.898Z,13.73
2023-04-05T17:27:12.028Z,13.73
2023-04-05T17:29:59.171Z,13.76
2023-04-05T17:32:44.512Z,13.65
2023-04-05T17:35:29.819Z,13.52
2023-04-05T17:38:15.402Z,13.41
2023-04-05T17:41:00.986Z,13.38
2023-04-05T17:43:46.906Z,13.34
2023-04-05T17:46:42.750Z,13.29
2023-04-05T17:49:31.868Z,13.21
2023-04-05T17:52:17.121Z,13.17
2023-04-05T17:55:03.250Z,13.09
2023-04-05T17:57:48.987Z,13.04
2023-04-05T18:00:34.806Z,12.97
2023-04-05T18:03:20.110Z,12.89
2023-04-05T18:06:06.333Z,12.80
2023-04-05T18:08:51.959Z,12.75
2023-04-05T18:11:37.447Z,12.71
2023-04-05T18:14:22.951Z,12.67
2023-04-05T18:17:08.490Z,12.60
2023-04-05T18:19:54.844Z,12.54
2023-04-05T18:22:40.464Z,12.51
2023-04-05T18:25:26.509Z,12.47
2023-04-05T18:28:22.363Z,12.34
2023-04-05T18:31:10.004Z,12.28
2023-04-05T18:33:55.753Z,12.23
2023-04-05T18:36:41.239Z,12.22
2023-04-05T18:39:27.743Z,12.17
2023-04-05T18:42:13.394Z,12.13
2023-04-05T18:45:00.498Z,12.08
2023-04-05T18:47:46.118Z,12.03
2023-04-05T18:50:31.466Z,11.96
2023-04-05T18:53:16.792Z,11.89
2023-04-05T18:56:02.586Z,11.83
2023-04-05T18:58:48.232Z,11.76
2023-04-05T19:01:34.230Z,11.72
2023-04-05T19:04:20.156Z,11.63
2023-04-05T19:07:05.817Z,11.57
2023-04-05T19:09:51.292Z,11.50
2023-04-05T19:12:36.633Z,11.39
2023-04-05T19:15:22.006Z,11.29
2023-04-05T19:18:07.461Z,11.25
2023-04-05T19:21:04.736Z,11.24
2023-04-05T19:23:50.065Z,11.25
2023-04-05T19:26:35.706Z,11.23
2023-04-05T19:29:21.195Z,11.22
2023-04-05T19:32:06.923Z,11.22
2023-04-05T19:34:52.880Z,11.24
2023-04-05T19:37:38.613Z,11.27
2023-04-05T19:40:25.420Z,11.28
2023-04-05T19:43:12.514Z,11.29
2023-04-05T19:46:00.158Z,11.30
2023-04-05T19:48:46.759Z,11.30
2023-04-05T19:51:33.700Z,11.31
2023-04-05T19:54:20.041Z,11.30
2023-04-05T19:57:06.572Z,11.29
2023-04-05T19:59:53.111Z,11.28
2023-04-05T20:02:38.670Z,11.26
2023-04-05T20:05:42.400Z,11.23
2023-04-05T20:08:28.970Z,11.20
2023-04-05T20:11:17.018Z,11.16
2023-04-05T20:14:04.002Z,11.11
2023-04-05T20:16:49.888Z,11.04
2023-04-05T20:19:39.181Z,10.94
2023-04-05T20:22:27.082Z,10.87
2023-04-05T20:25:35.039Z,10.75
2023-04-05T20:28:26.690Z,10.67
2023-04-05T20:31:19.053Z,10.54
2023-04-05T20:34:24.910Z,10.49
2023-04-05T20:37:12.004Z,10.45
2023-04-05T20:39:57.721Z,10.42
2023-04-05T20:42:43.174Z,10.38
2023-04-05T20:45:28.698Z,10.37
2023-04-05T20:48:13.913Z,10.35
2023-04-05T20:51:00.764Z,10.32
2023-04-05T20:53:46.616Z,10.26
2023-04-05T20:56:32.148Z,10.24
2023-04-05T20:59:17.676Z,10.25
2023-04-05T21:02:03.023Z,10.24
2023-04-05T21:04:50.551Z,10.22
2023-04-05T21:07:36.552Z,10.21
2023-04-05T21:10:22.114Z,10.19
2023-04-05T21:13:07.307Z,10.17
2023-04-05T21:15:54.049Z,10.16
2023-04-05T21:18:40.079Z,10.14
2023-04-05T21:21:26.337Z,10.13
2023-04-05T21:24:11.765Z,10.12
2023-04-05T21:26:57.117Z,10.05
2023-04-05T21:29:42.495Z,10.02
2023-04-05T21:32:27.836Z,9.99
2023-04-05T21:35:13.330Z,9.98
2023-04-05T21:37:58.980Z,9.96
2023-04-05T21:40:47.880Z,9.94
2023-04-05T21:43:33.109Z,9.91
2023-04-05T21:46:20.469Z,9.89
2023-04-05T21:49:06.662Z,9.87
2023-04-05T21:51:52.300Z,9.88
2023-04-05T21:54:37.740Z,9.87
2023-04-05T21:57:23.197Z,9.85
2023-04-05T22:00:12.245Z,9.85
2023-04-05T22:03:00.995Z,9.86
2023-04-05T22:05:46.451Z,9.85
2023-04-05T22:08:34.134Z,9.84
2023-04-05T22:11:20.525Z,9.84
2023-04-05T22:14:06.054Z,9.83
2023-04-05T22:16:51.620Z,9.82
2023-04-05T22:19:37.187Z,9.79
2023-04-05T22:22:22.623Z,9.77
2023-04-05T22:25:09.226Z,9.76
2023-04-05T22:28:00.024Z,9.76
2023-04-05T22:30:46.029Z,9.74
2023-04-05T22:33:31.699Z,9.72
2023-04-05T22:36:17.224Z,9.70
2023-04-05T22:39:02.913Z,9.69
2023-04-05T22:41:48.257Z,9.65
2023-04-05T22:44:33.606Z,9.64
2023-04-05T22:47:18.892Z,9.60
2023-04-05T22:50:04.590Z,9.51
2023-04-05T22:52:49.941Z,9.45
2023-04-05T22:55:37.479Z,9.43
2023-04-05T22:58:23.095Z,9.36
2023-04-05T23:01:08.576Z,9.31
2023-04-05T23:03:53.840Z,9.26
2023-04-05T23:06:39.244Z,9.21
2023-04-05T23:09:24.634Z,9.18
2023-04-05T23:12:11.608Z,9.14
2023-04-05T23:14:58.364Z,9.17
2023-04-05T23:17:43.968Z,9.14
2023-04-05T23:20:29.204Z,9.16
2023-04-05T23:23:15.569Z,9.16
2023-04-05T23:26:01.011Z,9.13
2023-04-05T23:28:46.744Z,9.10
2023-04-05T23:31:32.367Z,9.01
2023-04-05T23:34:17.776Z,8.99
2023-04-05T23:37:03.095Z,8.98
2023-04-05T23:39:48.352Z,8.90
2023-04-05T23:42:33.666Z,8.85
2023-04-05T23:45:19.097Z,8.79
2023-04-05T23:48:04.781Z,8.74
2023-04-05T23:50:50.411Z,8.68
2023-04-05T23:53:36.416Z,8.64
2023-04-05T23:56:21.943Z,8.60
2023-04-05T23:59:07.807Z,8.56
